createdAt,value
2023-12-09T00:01:10.722Z,81.46
2023-12-09T00:04:08.652Z,81.41
2023-12-09T00:07:06.353Z,81.44
2023-12-09T00:10:04.051Z,81.43
2023-12-09T00:13:01.454Z,81.48
2023-12-09T00:15:59.191Z,81.50
2023-12-09T00:18:57.531Z,81.50
2023-12-09T00:21:55.372Z,81.53
2023-12-09T00:24:53.447Z,81.57
2023-12-09T00:27:51.173Z,81.60
2023-12-09T00:30:48.574Z,81.61
2023-12-09T00:33:46.381Z,81.65
2023-12-09T00:36:43.966Z,81.69
2023-12-09T00:39:41.642Z,81.70
2023-12-09T00:42:39.104Z,81.64
2023-12-09T00:45:36.825Z,81.68
2023-12-09T00:48:34.637Z,81.76
2023-12-09T00:51:32.694Z,81.78
2023-12-09T00:54:30.595Z,81.77
2023-12-09T00:57:28.408Z,81.78
2023-12-09T01:00:27.193Z,81.80
2023-12-09T01:03:25.484Z,81.80
2023-12-09T01:06:22.986Z,81.85
2023-12-09T01:09:20.600Z,81.90
2023-12-09T01:12:18.121Z,81.90
2023-12-09T01:15:16.115Z,81.92
2023-12-09T01:18:13.943Z,81.93
2023-12-09T01:21:11.781Z,81.93
2023-12-09T01:24:09.462Z,81.93
2023-12-09T01:27:07.274Z,81.82
2023-12-09T01:30:05.732Z,81.85
2023-12-09T01:33:03.436Z,81.82
2023-12-09T01:36:01.811Z,81.89
2023-12-09T01:38:59.264Z,81.93
2023-12-09T01:41:57.650Z,81.95
2023-12-09T01:44:55.451Z,81.91
2023-12-09T01:47:53.330Z,81.90
2023-12-09T01:50:51.112Z,81.93
2023-12-09T01:53:48.532Z,81.92
2023-12-09T01:56:46.413Z,81.93
2023-12-09T01:59:43.841Z,81.97
2023-12-09T02:02:41.425Z,81.93
2023-12-09T02:05:38.864Z,81.92
2023-12-09T02:08:36.487Z,81.97
2023-12-09T02:11:34.130Z,81.99
2023-12-09T02:14:32.143Z,82.01
2023-12-09T02:17:29.565Z,82.06
2023-12-09T02:20:28.063Z,82.07
2023-12-09T02:23:25.537Z,82.20
2023-12-09T02:26:23.212Z,82.18
2023-12-09T02:29:20.583Z,82.13
2023-12-09T02:32:18.235Z,82.19
2023-12-09T02:35:15.772Z,82.23
2023-12-09T02:38:13.664Z,82.29
2023-12-09T02:41:11.318Z,82.35
2023-12-09T02:44:08.690Z,82.40
2023-12-09T02:47:06.528Z,82.40
2023-12-09T02:50:04.077Z,82.38
2023-12-09T02:53:01.694Z,82.47
2023-12-09T02:55:59.109Z,82.56
2023-12-09T02:58:56.950Z,82.54
2023-12-09T03:01:54.345Z,82.58
2023-12-09T03:04:51.906Z,82.64
2023-12-09T03:07:49.290Z,82.68
2023-12-09T03:10:46.945Z,82.76
2023-12-09T03:13:44.323Z,82.81
2023-12-09T03:16:41.963Z,82.82
2023-12-09T03:19:39.501Z,82.80
2023-12-09T03:22:37.250Z,82.82
2023-12-09T03:25:34.653Z,82.87
2023-12-09T03:28:32.426Z,82.93
2023-12-09T03:31:29.797Z,83.00
2023-12-09T03:34:27.743Z,82.99
2023-12-09T03:37:25.294Z,83.00
2023-12-09T03:40:23.046Z,83.07
2023-12-09T03:43:20.523Z,83.10
2023-12-09T03:46:18.251Z,83.12
2023-12-09T03:49:15.803Z,83.20
2023-12-09T03:52:15.291Z,83.20
2023-12-09T03:55:14.735Z,83.19
2023-12-09T03:58:12.702Z,83.18
2023-12-09T04:01:10.394Z,83.23
2023-12-09T04:04:08.048Z,83.26
2023-12-09T04:07:05.476Z,83.20
2023-12-09T04:10:03.021Z,83.20
2023-12-09T04:13:00.399Z,83.20
2023-12-09T04:15:58.138Z,83.21
2023-12-09T04:18:55.656Z,83.20
2023-12-09T04:21:54.253Z,83.21
2023-12-09T04:24:51.656Z,83.26
2023-12-09T04:27:49.425Z,83.28
2023-12-09T04:30:47.188Z,83.28
2023-12-09T04:33:45.845Z,83.23
2023-12-09T04:36:43.307Z,83.28
2023-12-09T04:39:41.057Z,83.30
2023-12-09T04:42:39.184Z,83.31
2023-12-09T04:45:37.038Z,83.33
2023-12-09T04:48:34.597Z,83.40
2023-12-09T04:51:32.538Z,83.40
2023-12-09T04:54:30.806Z,83.44
2023-12-09T04:57:28.791Z,83.50
2023-12-09T05:00:27.213Z,83.52
2023-12-09T05:03:24.735Z,83.51
2023-12-09T05:06:22.708Z,83.51
2023-12-09T05:09:20.203Z,83.57
2023-12-09T05:12:18.072Z,83.60
2023-12-09T05:15:15.575Z,83.63
2023-12-09T05:18:13.421Z,83.71
2023-12-09T05:21:11.166Z,83.70
2023-12-09T05:24:09.281Z,83.71
2023-12-09T05:27:06.929Z,83.70
2023-12-09T05:30:04.626Z,83.72
2023-12-09T05:33:02.093Z,83.74
2023-12-09T05:36:00.507Z,83.74
2023-12-09T05:38:57.957Z,83.73
2023-12-09T05:41:55.694Z,83.79
2023-12-09T05:44:53.176Z,83.81
2023-12-09T05:47:50.837Z,83.90
2023-12-09T05:50:48.433Z,83.90
2023-12-09T05:53:46.306Z,83.95
2023-12-09T05:56:43.959Z,83.91
2023-12-09T05:59:41.437Z,83.93
2023-12-09T06:02:39.201Z,83.93
2023-12-09T06:05:36.656Z,83.96
2023-12-09T06:08:35.105Z,83.93
2023-12-09T06:11:32.520Z,83.97
2023-12-09T06:14:30.089Z,83.98
2023-12-09T06:17:27.616Z,84.03
2023-12-09T06:20:25.390Z,84.08
2023-12-09T06:23:23.073Z,84.18
2023-12-09T06:26:20.454Z,84.20
2023-12-09T06:29:18.108Z,84.20
2023-12-09T06:32:15.523Z,84.18
2023-12-09T06:35:13.271Z,84.13
2023-12-09T06:38:10.764Z,84.14
2023-12-09T06:41:08.458Z,84.10
2023-12-09T06:44:05.847Z,84.05
2023-12-09T06:47:03.586Z,83.96
2023-12-09T06:50:00.993Z,83.96
2023-12-09T06:52:58.683Z,84.00
2023-12-09T06:55:56.045Z,84.02
2023-12-09T06:58:53.889Z,84.07
2023-12-09T07:01:51.595Z,84.07
2023-12-09T07:04:49.360Z,84.09
2023-12-09T07:07:47.425Z,84.10
2023-12-09T07:10:45.002Z,84.12
2023-12-09T07:13:42.587Z,84.18
2023-12-09T07:16:40.164Z,84.18
2023-12-09T07:19:37.600Z,84.18
2023-12-09T07:22:35.284Z,84.18
2023-12-09T07:25:32.656Z,84.16
2023-12-09T07:28:30.685Z,84.19
2023-12-09T07:31:28.471Z,84.19
2023-12-09T07:34:25.977Z,84.20
2023-12-09T07:37:23.672Z,84.19
2023-12-09T07:40:21.234Z,84.18
2023-12-09T07:43:18.990Z,84.18
2023-12-09T07:46:16.682Z,84.12
2023-12-09T07:49:14.336Z,84.11
2023-12-09T07:52:12.193Z,84.12
2023-12-09T07:55:10.094Z,84.07
2023-12-09T07:58:07.701Z,84.01
2023-12-09T08:01:07.987Z,84.02
2023-12-09T08:04:07.598Z,84.00
2023-12-09T08:07:05.345Z,83.98
2023-12-09T08:10:02.906Z,83.92
2023-12-09T08:13:00.495Z,83.94
2023-12-09T08:15:57.910Z,84.00
2023-12-09T08:18:55.760Z,84.02
2023-12-09T08:21:53.359Z,83.98
2023-12-09T08:24:51.118Z,84.00
2023-12-09T08:27:48.578Z,84.00
2023-12-09T08:30:48.307Z,83.90
2023-12-09T08:33:45.860Z,83.90
2023-12-09T08:36:43.742Z,83.91
2023-12-09T08:39:41.194Z,83.92
2023-12-09T08:42:39.633Z,83.90
2023-12-09T08:45:38.016Z,83.90
2023-12-09T08:48:35.937Z,83.86
2023-12-09T08:51:33.636Z,83.73
2023-12-09T08:54:31.591Z,83.69
2023-12-09T08:57:29.038Z,83.68
2023-12-09T09:00:28.233Z,83.65
2023-12-09T09:03:26.951Z,83.66
2023-12-09T09:06:24.651Z,83.60
2023-12-09T09:09:22.151Z,83.57
2023-12-09T09:12:19.931Z,83.52
2023-12-09T09:15:17.426Z,83.50
2023-12-09T09:18:15.296Z,83.42
2023-12-09T09:21:12.838Z,83.40
2023-12-09T09:24:10.497Z,83.45
2023-12-09T09:27:07.929Z,83.43
2023-12-09T09:30:05.823Z,83.40
2023-12-09T09:33:03.520Z,83.40
2023-12-09T09:36:01.572Z,83.39
2023-12-09T09:38:58.997Z,83.35
2023-12-09T09:41:57.501Z,83.24
2023-12-09T09:44:54.920Z,83.21
2023-12-09T09:47:52.716Z,83.22
2023-12-09T09:50:50.114Z,83.11
2023-12-09T09:53:47.790Z,83.10
2023-12-09T09:56:45.179Z,83.03
2023-12-09T09:59:42.950Z,83.01
2023-12-09T10:02:40.348Z,83.04
2023-12-09T10:05:38.541Z,83.00
2023-12-09T10:08:36.749Z,82.99
2023-12-09T10:11:34.142Z,82.92
2023-12-09T10:14:32.415Z,82.93
2023-12-09T10:17:29.860Z,82.78
2023-12-09T10:20:29.150Z,82.72
2023-12-09T10:23:26.577Z,82.58
2023-12-09T10:26:24.309Z,82.65
2023-12-09T10:29:21.702Z,82.54
2023-12-09T10:32:19.406Z,82.44
2023-12-09T10:35:16.804Z,82.44
2023-12-09T10:38:14.532Z,82.38
2023-12-09T10:41:11.930Z,82.43
2023-12-09T10:44:09.606Z,82.39
2023-12-09T10:47:07.659Z,82.47
2023-12-09T10:50:05.208Z,82.50
2023-12-09T10:53:02.863Z,82.57
2023-12-09T10:56:00.249Z,82.43
2023-12-09T10:58:57.869Z,82.51
2023-12-09T11:01:55.293Z,82.42
2023-12-09T11:04:53.353Z,82.42
2023-12-09T11:07:51.009Z,82.42
2023-12-09T11:10:49.607Z,82.43
2023-12-09T11:13:49.058Z,82.32
2023-12-09T11:16:47.491Z,82.24
2023-12-09T11:19:45.775Z,82.20
2023-12-09T11:22:43.436Z,82.20
2023-12-09T11:25:41.272Z,82.15
2023-12-09T11:28:38.717Z,82.22
2023-12-09T11:31:36.364Z,82.25
2023-12-09T11:34:34.379Z,82.14
2023-12-09T11:37:32.238Z,82.05
2023-12-09T11:40:29.641Z,81.96
2023-12-09T11:43:27.375Z,81.93
2023-12-09T11:46:25.652Z,81.82
2023-12-09T11:49:23.552Z,81.62
2023-12-09T11:52:21.266Z,81.56
2023-12-09T11:55:19.019Z,81.62
2023-12-09T11:58:16.438Z,81.61
2023-12-09T12:01:14.122Z,81.70
2023-12-09T12:04:11.998Z,81.72
2023-12-09T12:07:09.766Z,81.74
2023-12-09T12:10:07.203Z,81.80
2023-12-09T12:13:04.801Z,81.88
2023-12-09T12:16:02.449Z,81.96
2023-12-09T12:19:00.080Z,81.91
2023-12-09T12:21:57.607Z,81.96
2023-12-09T12:24:55.219Z,82.07
2023-12-09T12:27:52.937Z,82.03
2023-12-09T12:30:50.806Z,82.07
2023-12-09T12:33:48.688Z,82.06
2023-12-09T12:36:46.444Z,82.15
2023-12-09T12:39:44.197Z,82.13
2023-12-09T12:42:41.925Z,82.01
2023-12-09T12:45:40.834Z,82.12
2023-12-09T12:48:38.790Z,82.05
2023-12-09T12:51:36.632Z,81.91
2023-12-09T12:54:34.597Z,81.96
2023-12-09T12:57:32.753Z,82.07
2023-12-09T13:00:32.026Z,82.24
2023-12-09T13:03:30.564Z,82.30
2023-12-09T13:09:26.660Z,82.40
2023-12-09T13:12:24.764Z,82.36
2023-12-09T13:15:22.946Z,82.38
2023-12-09T13:18:22.543Z,82.30
2023-12-09T13:21:20.713Z,82.39
2023-12-09T13:24:18.212Z,82.41
2023-12-09T13:27:15.874Z,82.39
2023-12-09T13:30:14.732Z,82.41
2023-12-09T13:33:12.988Z,82.53
2023-12-09T13:36:13.975Z,82.59
2023-12-09T13:39:13.327Z,82.60
2023-12-09T13:42:13.772Z,82.68
2023-12-09T13:45:11.753Z,82.61
2023-12-09T13:48:10.363Z,82.65
2023-12-09T13:51:09.938Z,82.69
2023-12-09T13:54:07.400Z,82.78
2023-12-09T13:57:05.083Z,82.85
2023-12-09T14:00:09.308Z,82.88
2023-12-09T14:03:07.336Z,82.88
2023-12-09T14:06:05.033Z,82.90
2023-12-09T14:09:02.519Z,82.99
2023-12-09T14:12:00.239Z,83.01
2023-12-09T14:14:59.429Z,82.96
2023-12-09T14:17:57.061Z,83.00
2023-12-09T14:20:56.063Z,83.01
2023-12-09T14:23:53.937Z,83.05
2023-12-09T14:26:51.610Z,83.07
2023-12-09T14:29:49.028Z,83.11
2023-12-09T14:32:46.921Z,83.15
2023-12-09T14:35:44.503Z,83.23
2023-12-09T14:38:42.477Z,83.26
2023-12-09T14:41:41.607Z,83.34
2023-12-09T14:44:39.336Z,83.35
2023-12-09T14:47:36.973Z,83.36
2023-12-09T14:50:34.768Z,83.38
2023-12-09T14:53:32.520Z,83.39
2023-12-09T14:56:29.958Z,83.43
2023-12-09T14:59:27.649Z,83.50
2023-12-09T15:02:25.107Z,83.60
2023-12-09T15:05:22.878Z,83.61
2023-12-09T15:08:20.436Z,83.66
2023-12-09T15:11:18.052Z,83.78
2023-12-09T15:14:15.479Z,83.80
2023-12-09T15:17:13.182Z,83.89
2023-12-09T15:20:11.112Z,83.98
2023-12-09T15:23:08.970Z,84.00
2023-12-09T15:26:06.405Z,84.10
2023-12-09T15:29:04.591Z,84.16
2023-12-09T15:32:02.258Z,84.21
2023-12-09T15:34:59.719Z,84.26
2023-12-09T15:37:58.637Z,84.31
2023-12-09T15:40:56.294Z,84.35
2023-12-09T15:43:54.061Z,84.32
2023-12-09T15:46:51.590Z,84.40
2023-12-09T15:49:49.341Z,84.41
2023-12-09T15:52:47.322Z,84.47
2023-12-09T15:55:45.317Z,84.52
2023-12-09T15:58:43.094Z,84.53
2023-12-09T16:01:40.633Z,84.60
2023-12-09T16:04:39.238Z,84.64
2023-12-09T16:07:38.646Z,84.70
2023-12-09T16:10:36.385Z,84.70
2023-12-09T16:13:34.785Z,84.73
2023-12-09T16:16:32.533Z,84.78
2023-12-09T16:19:30.090Z,84.80
2023-12-09T16:22:28.223Z,84.79
2023-12-09T16:25:25.819Z,84.78
2023-12-09T16:28:23.543Z,84.71
2023-12-09T16:31:21.045Z,84.62
2023-12-09T16:34:18.975Z,84.60
2023-12-09T16:37:16.636Z,84.68
2023-12-09T16:40:15.106Z,84.68
2023-12-09T16:43:12.572Z,84.73
2023-12-09T16:46:10.885Z,84.71
2023-12-09T16:49:09.219Z,84.79
2023-12-09T16:52:07.211Z,84.82
2023-12-09T16:55:04.739Z,84.89
2023-12-09T16:58:02.530Z,84.94
2023-12-09T17:00:59.986Z,84.99
2023-12-09T17:03:57.850Z,85.00
2023-12-09T17:06:55.607Z,85.00
2023-12-09T17:09:53.561Z,85.02
2023-12-09T17:12:51.875Z,85.07
2023-12-09T17:15:49.674Z,85.10
2023-12-09T17:18:47.271Z,85.13
2023-12-09T17:21:45.038Z,85.13
2023-12-09T17:24:42.990Z,85.21
2023-12-09T17:27:40.906Z,85.20
2023-12-09T17:30:38.832Z,85.20
2023-12-09T17:33:36.780Z,85.20
2023-12-09T17:36:34.451Z,85.23
2023-12-09T17:39:32.233Z,85.27
2023-12-09T17:42:29.904Z,85.29
2023-12-09T17:45:28.733Z,85.30
2023-12-09T17:48:26.994Z,85.30
2023-12-09T17:51:24.981Z,85.34
2023-12-09T17:54:22.482Z,85.40
2023-12-09T17:57:20.500Z,85.41
2023-12-09T18:00:18.046Z,85.44
2023-12-09T18:03:15.798Z,85.50
2023-12-09T18:06:13.404Z,85.50
2023-12-09T18:09:11.130Z,85.50
2023-12-09T18:12:08.646Z,85.51
2023-12-09T18:15:06.375Z,85.55
2023-12-09T18:18:03.847Z,85.56
2023-12-09T18:21:01.460Z,85.54
2023-12-09T18:23:58.895Z,85.59
2023-12-09T18:26:56.692Z,85.60
2023-12-09T18:29:55.729Z,85.60
2023-12-09T18:32:53.850Z,85.58
2023-12-09T18:35:51.432Z,85.59
2023-12-09T18:38:49.301Z,85.60
2023-12-09T18:41:46.822Z,85.63
2023-12-09T18:44:44.610Z,85.63
2023-12-09T18:47:42.236Z,85.67
2023-12-09T18:50:40.238Z,85.70
2023-12-09T18:53:37.679Z,85.70
2023-12-09T18:56:37.038Z,85.73
2023-12-09T18:59:34.451Z,85.77
2023-12-09T19:02:33.673Z,85.80
2023-12-09T19:05:31.889Z,85.81
2023-12-09T19:08:29.635Z,85.82
2023-12-09T19:11:27.391Z,85.89
2023-12-09T19:14:24.813Z,85.90
2023-12-09T19:17:22.633Z,85.91
2023-12-09T19:20:20.042Z,85.93
2023-12-09T19:23:17.654Z,85.97
2023-12-09T19:26:15.520Z,86.00
2023-12-09T19:29:17.298Z,86.00
2023-12-09T19:32:15.980Z,86.01
2023-12-09T19:35:13.727Z,86.03
2023-12-09T19:38:11.150Z,86.01
2023-12-09T19:41:08.847Z,86.00
2023-12-09T19:44:06.290Z,86.00
2023-12-09T19:47:04.094Z,85.98
2023-12-09T19:50:01.637Z,85.98
2023-12-09T19:53:00.934Z,85.99
2023-12-09T19:55:58.732Z,86.00
2023-12-09T19:58:56.210Z,86.00
2023-12-09T20:01:53.896Z,85.98
2023-12-09T20:04:51.598Z,85.98
2023-12-09T20:07:49.365Z,85.95
2023-12-09T20:10:47.367Z,85.95
2023-12-09T20:13:45.782Z,85.94
2023-12-09T20:16:43.591Z,85.94
2023-12-09T20:19:41.154Z,85.90
2023-12-09T20:22:39.019Z,85.90
2023-12-09T20:25:36.529Z,85.90
2023-12-09T20:28:34.176Z,85.90
2023-12-09T20:31:31.881Z,85.87
2023-12-09T20:34:29.453Z,85.84
2023-12-09T20:37:27.371Z,85.81
2023-12-09T20:40:25.154Z,85.78
2023-12-09T20:43:22.970Z,85.78
2023-12-09T20:46:20.424Z,85.70
2023-12-09T20:49:19.020Z,85.70
2023-12-09T20:52:17.713Z,85.63
2023-12-09T20:55:15.375Z,85.62
2023-12-09T20:58:13.271Z,85.65
2023-12-09T21:01:10.799Z,85.60
2023-12-09T21:04:08.745Z,85.57
2023-12-09T21:07:06.392Z,85.54
2023-12-09T21:10:05.556Z,85.48
2023-12-09T21:13:03.168Z,85.40
2023-12-09T21:16:00.791Z,85.34
2023-12-09T21:18:59.379Z,85.29
2023-12-09T21:21:57.321Z,85.25
2023-12-09T21:24:54.797Z,85.20
2023-12-09T21:27:52.608Z,85.19
2023-12-09T21:30:50.289Z,85.12
2023-12-09T21:33:48.141Z,85.10
2023-12-09T21:36:46.388Z,85.15
2023-12-09T21:39:44.339Z,85.12
2023-12-09T21:42:41.813Z,85.09
2023-12-09T21:45:39.672Z,85.10
2023-12-09T21:48:37.576Z,85.10
2023-12-09T21:51:35.162Z,85.10
2023-12-09T21:54:32.909Z,85.12
2023-12-09T21:57:30.828Z,85.12
2023-12-09T22:00:28.319Z,85.10
2023-12-09T22:03:26.200Z,85.10
2023-12-09T22:06:23.909Z,85.07
2023-12-09T22:09:21.646Z,85.00
2023-12-09T22:12:19.138Z,84.99
2023-12-09T22:15:19.040Z,85.01
2023-12-09T22:18:16.613Z,85.03
2023-12-09T22:21:14.457Z,85.09
2023-12-09T22:24:11.976Z,85.11
2023-12-09T22:27:09.817Z,85.16
2023-12-09T22:30:07.448Z,85.19
2023-12-09T22:33:05.689Z,85.21
2023-12-09T22:36:03.478Z,85.27
2023-12-09T22:39:01.118Z,85.30
2023-12-09T22:41:58.888Z,85.31
2023-12-09T22:44:56.677Z,85.32
2023-12-09T22:47:54.251Z,85.30
2023-12-09T22:50:54.553Z,85.32
2023-12-09T22:53:52.700Z,85.30
2023-12-09T22:56:50.457Z,85.32
2023-12-09T22:59:47.863Z,85.36
2023-12-09T23:02:45.565Z,85.33
2023-12-09T23:05:43.007Z,85.30
2023-12-09T23:08:40.829Z,85.30
2023-12-09T23:11:38.494Z,85.32
2023-12-09T23:14:36.186Z,85.31
2023-12-09T23:17:33.660Z,85.30
2023-12-09T23:20:31.505Z,85.32
2023-12-09T23:23:28.914Z,85.32
2023-12-09T23:26:26.538Z,85.30
2023-12-09T23:29:23.970Z,85.26
2023-12-09T23:32:22.065Z,85.20
2023-12-09T23:35:19.693Z,85.14
2023-12-09T23:38:17.116Z,85.10
2023-12-09T23:41:14.753Z,85.10
2023-12-09T23:44:12.185Z,85.10
2023-12-09T23:47:10.133Z,85.08
2023-12-09T23:50:07.599Z,85.09
2023-12-09T23:53:05.233Z,85.02
2023-12-09T23:56:02.660Z,84.98
2023-12-09T23:59:00.337Z,84.96
